Time;durP1;ratioP1;P1;durP2;ratioP2;P2;SDS_P1;SDS_P2;PMS_P1;PMS_P2;Temp;Humidity;BMP_temperature;BMP_pressure;BME280_temperature;BME280_humidity;BME280_pressure;Samples;Min_cycle;Max_cycle;Signal;HPM_P1;HPM_P2
2023/03/06 00:00:19;;;;;;;5.47;1.95;;;2.50;99.90;;;;;;5068057;28;20036;-69
2023/03/06 00:02:45;;;;;;;8.00;1.70;;;2.50;99.90;;;;;;5074627;28;20078;-70
2023/03/06 00:05:12;;;;;;;5.20;1.60;;;2.50;99.90;;;;;;5071785;28;20036;-70
2023/03/06 00:07:37;;;;;;;4.53;1.70;;;2.50;99.90;;;;;;5073905;28;20051;-70
2023/03/06 00:10:03;;;;;;;4.50;1.70;;;2.50;99.90;;;;;;5056084;28;20045;-70
2023/03/06 00:12:29;;;;;;;5.88;1.63;;;2.50;99.90;;;;;;5064690;28;20041;-70
2023/03/06 00:14:55;;;;;;;2.33;1.42;;;2.50;99.90;;;;;;5064173;28;20044;-70
2023/03/06 00:17:20;;;;;;;5.70;1.75;;;2.50;99.90;;;;;;5068457;28;20029;-71
2023/03/06 00:19:46;;;;;;;3.90;1.50;;;2.50;99.90;;;;;;5061346;28;20045;-71
2023/03/06 00:22:14;;;;;;;6.00;1.30;;;2.40;99.90;;;;;;5067371;28;20119;-70
2023/03/06 00:24:41;;;;;;;5.70;1.73;;;2.40;99.90;;;;;;5069966;28;20505;-70
2023/03/06 00:27:08;;;;;;;6.78;1.50;;;2.30;99.90;;;;;;5068140;28;20365;-70
2023/03/06 00:29:34;;;;;;;4.97;1.17;;;2.30;99.90;;;;;;5072330;28;20053;-70
2023/03/06 00:32:00;;;;;;;2.65;1.27;;;2.30;99.90;;;;;;5059515;28;20032;-70
2023/03/06 00:34:26;;;;;;;2.97;1.58;;;2.20;99.90;;;;;;5065621;28;20040;-70
2023/03/06 00:36:52;;;;;;;3.67;1.40;;;2.10;99.90;;;;;;5060619;28;20036;-71
2023/03/06 00:39:17;;;;;;;5.18;1.90;;;2.10;99.90;;;;;;5064874;28;20037;-69
2023/03/06 00:41:43;;;;;;;6.60;1.50;;;2.10;99.90;;;;;;5065524;28;20037;-69
2023/03/06 00:44:09;;;;;;;5.65;1.63;;;2.20;99.90;;;;;;5062222;28;20044;-70
2023/03/06 00:46:34;;;;;;;3.92;1.40;;;2.10;99.90;;;;;;5042516;28;20068;-70
2023/03/06 00:49:00;;;;;;;3.45;1.30;;;2.10;99.90;;;;;;5064195;28;20489;-70
2023/03/06 00:51:26;;;;;;;3.25;1.30;;;2.10;99.90;;;;;;5069390;28;20414;-70
2023/03/06 00:53:51;;;;;;;2.85;1.80;;;2.10;99.90;;;;;;5070306;28;20056;-69
2023/03/06 00:56:18;;;;;;;2.63;1.10;;;2.10;99.90;;;;;;5071441;28;20072;-70
2023/03/06 00:58:44;;;;;;;9.48;1.50;;;2.20;99.90;;;;;;5064999;28;20052;-70
2023/03/06 01:01:09;;;;;;;3.53;1.20;;;2.10;99.90;;;;;;5070524;28;20516;-70
2023/03/06 01:03:35;;;;;;;3.58;1.35;;;2.20;99.90;;;;;;5054857;28;20048;-71
2023/03/06 01:06:01;;;;;;;3.47;1.50;;;2.10;99.90;;;;;;5066128;28;20550;-71
2023/03/06 01:08:26;;;;;;;2.35;1.30;;;2.10;99.90;;;;;;5072562;28;20071;-70
2023/03/06 01:10:52;;;;;;;3.58;1.60;;;2.10;99.90;;;;;;5071082;28;20137;-70
2023/03/06 01:13:18;;;;;;;3.42;1.40;;;2.00;99.90;;;;;;5067847;28;20037;-70
2023/03/06 01:15:43;;;;;;;3.67;1.65;;;2.00;99.90;;;;;;5070207;28;20048;-70
2023/03/06 01:18:09;;;;;;;6.40;1.50;;;2.00;99.90;;;;;;5057177;28;20045;-70
2023/03/06 01:20:35;;;;;;;3.53;1.42;;;1.90;99.90;;;;;;5060841;28;20119;-70
2023/03/06 01:23:01;;;;;;;5.25;1.80;;;1.90;99.90;;;;;;5071260;28;20040;-70
2023/03/06 01:25:26;;;;;;;2.28;1.38;;;1.90;99.90;;;;;;5070203;28;20392;-70
2023/03/06 01:27:52;;;;;;;5.18;1.58;;;1.90;99.90;;;;;;5066724;28;20124;-70
2023/03/06 01:30:19;;;;;;;2.22;1.35;;;1.90;99.90;;;;;;5058221;28;20126;-70
2023/03/06 01:32:44;;;;;;;8.15;1.67;;;1.90;99.90;;;;;;5073636;28;20135;-70
2023/03/06 01:35:11;;;;;;;3.85;1.60;;;1.90;99.90;;;;;;5070379;28;20132;-70
2023/03/06 01:37:38;;;;;;;4.88;1.60;;;1.90;99.90;;;;;;5073230;28;20458;-70
2023/03/06 01:40:04;;;;;;;5.75;1.80;;;1.90;99.90;;;;;;5068986;28;20040;-70
2023/03/06 01:42:30;;;;;;;7.50;1.90;;;2.00;99.90;;;;;;5071253;28;20033;-70
2023/03/06 01:45:05;;;;;;;4.47;1.95;;;2.00;99.90;;;;;;5074018;28;20040;-70
2023/03/06 01:47:30;;;;;;;7.50;1.67;;;2.00;99.90;;;;;;5060003;28;20123;-69
2023/03/06 01:49:57;;;;;;;7.38;2.28;;;2.10;99.90;;;;;;5072747;28;20136;-69
2023/03/06 01:52:27;;;;;;;4.60;1.90;;;2.20;99.90;;;;;;5068481;28;20497;-69
2023/03/06 01:55:02;;;;;;;6.25;1.90;;;2.00;99.90;;;;;;5069371;28;20071;-70
2023/03/06 01:57:56;;;;;;;5.22;1.75;;;2.00;99.90;;;;;;5071729;28;20041;-70
2023/03/06 02:00:27;;;;;;;4.13;1.63;;;2.00;99.90;;;;;;5069583;28;20044;-70
2023/03/06 02:03:05;;;;;;;2.60;1.40;;;2.00;99.90;;;;;;5075540;28;20060;-70
2023/03/06 02:05:31;;;;;;;3.22;1.40;;;2.00;99.90;;;;;;5071268;28;20062;-70
2023/03/06 02:07:57;;;;;;;2.80;1.60;;;1.90;99.90;;;;;;5076042;28;20525;-70
2023/03/06 02:10:24;;;;;;;4.13;1.58;;;1.90;99.90;;;;;;5070483;28;20096;-69
2023/03/06 02:12:50;;;;;;;3.55;1.42;;;1.90;99.90;;;;;;5074510;28;20037;-68
2023/03/06 02:15:19;;;;;;;3.60;1.38;;;1.80;99.90;;;;;;5071510;28;20089;-69
2023/03/06 02:17:46;;;;;;;1.90;1.33;;;1.70;99.90;;;;;;5074605;28;20104;-70
2023/03/06 02:20:30;;;;;;;2.60;1.50;;;1.60;99.90;;;;;;5069370;28;20080;-70
2023/03/06 02:23:15;;;;;;;2.78;1.40;;;1.50;99.90;;;;;;5068833;28;20048;-69
2023/03/06 02:25:49;;;;;;;4.07;1.60;;;1.40;99.90;;;;;;5073262;28;20040;-71
2023/03/06 02:28:18;;;;;;;2.22;1.40;;;1.40;99.90;;;;;;5064771;28;20068;-69
2023/03/06 02:30:45;;;;;;;3.50;1.23;;;1.40;99.90;;;;;;5059607;28;20068;-69
2023/03/06 02:33:13;;;;;;;2.53;1.33;;;1.40;99.90;;;;;;5072832;28;20063;-69
2023/03/06 02:35:42;;;;;;;2.45;1.30;;;1.30;99.90;;;;;;5066924;28;20033;-69
2023/03/06 02:38:16;;;;;;;2.63;1.20;;;1.60;99.90;;;;;;5069431;28;20048;-69
2023/03/06 02:40:45;;;;;;;2.50;1.52;;;1.30;99.90;;;;;;5068219;28;21500;-69
2023/03/06 02:43:13;;;;;;;1.73;1.25;;;1.30;99.90;;;;;;5066168;28;20469;-69
2023/03/06 02:45:45;;;;;;;4.13;1.50;;;1.30;99.90;;;;;;5066135;28;20047;-70
2023/03/06 02:48:12;;;;;;;2.00;1.33;;;1.30;99.90;;;;;;5071142;28;20037;-68
2023/03/06 02:50:39;;;;;;;4.63;1.50;;;1.30;99.90;;;;;;5068509;28;20068;-68
2023/03/06 02:53:05;;;;;;;3.17;1.50;;;1.30;99.90;;;;;;5072823;28;20032;-68
2023/03/06 02:55:32;;;;;;;2.13;1.38;;;1.30;99.90;;;;;;5071380;28;20294;-68
2023/03/06 02:57:57;;;;;;;2.08;1.17;;;1.30;99.90;;;;;;5070899;28;20040;-68
2023/03/06 03:00:23;;;;;;;5.05;1.42;;;1.30;99.90;;;;;;5071226;28;20126;-68
2023/03/06 03:02:49;;;;;;;2.63;1.40;;;1.30;99.90;;;;;;5072290;28;20052;-68
2023/03/06 03:05:14;;;;;;;2.45;1.42;;;1.30;99.90;;;;;;5065231;28;20040;-68
2023/03/06 03:07:40;;;;;;;4.57;1.33;;;1.30;99.90;;;;;;5074484;28;20044;-68
2023/03/06 03:10:06;;;;;;;3.95;2.28;;;1.30;99.90;;;;;;5068759;28;20047;-68
2023/03/06 03:12:32;;;;;;;3.35;1.70;;;1.30;99.90;;;;;;5062479;28;20037;-68
2023/03/06 03:14:58;;;;;;;3.35;1.50;;;1.30;99.90;;;;;;5063510;28;20755;-68
2023/03/06 03:17:23;;;;;;;2.20;1.50;;;1.30;99.90;;;;;;5071031;28;20060;-68
2023/03/06 03:19:50;;;;;;;3.30;1.50;;;1.30;99.90;;;;;;5067540;28;20043;-69
2023/03/06 03:22:16;;;;;;;1.35;1.02;;;1.30;99.90;;;;;;5065542;28;20032;-69
2023/03/06 03:24:41;;;;;;;5.97;1.63;;;1.30;99.90;;;;;;5066925;28;20068;-68
2023/03/06 03:27:08;;;;;;;8.35;1.80;;;1.20;99.90;;;;;;5065784;28;20056;-69
2023/03/06 03:29:33;;;;;;;1.65;1.20;;;1.20;99.90;;;;;;5073956;28;20036;-69
2023/03/06 03:31:59;;;;;;;4.38;1.80;;;1.20;99.90;;;;;;5069813;28;20029;-69
2023/03/06 03:34:25;;;;;;;2.80;1.58;;;1.20;99.90;;;;;;5068234;28;20055;-69
2023/03/06 03:36:50;;;;;;;4.40;1.50;;;1.20;99.90;;;;;;5073348;28;20029;-69
2023/03/06 03:39:16;;;;;;;3.85;2.10;;;1.10;99.90;;;;;;5068873;28;20134;-69
2023/03/06 03:41:42;;;;;;;2.75;1.60;;;1.10;99.90;;;;;;5070457;28;20517;-69
2023/03/06 03:44:08;;;;;;;4.75;2.13;;;1.10;99.90;;;;;;5064348;28;20139;-69
2023/03/06 03:46:34;;;;;;;3.67;2.03;;;1.00;99.90;;;;;;5064343;28;20464;-69
2023/03/06 03:49:00;;;;;;;4.78;1.92;;;1.00;99.90;;;;;;5068526;28;20198;-69
2023/03/06 03:51:25;;;;;;;6.22;1.85;;;1.00;99.90;;;;;;5070683;28;20080;-69
2023/03/06 03:53:51;;;;;;;4.32;1.75;;;0.90;99.90;;;;;;5071881;28;20040;-68
2023/03/06 03:56:17;;;;;;;3.30;1.50;;;0.90;99.90;;;;;;5069108;28;20147;-68
2023/03/06 03:58:43;;;;;;;4.28;1.70;;;0.90;99.90;;;;;;5069241;28;20040;-68
2023/03/06 04:01:08;;;;;;;4.05;1.92;;;0.90;99.90;;;;;;5067689;28;20040;-69
2023/03/06 04:03:34;;;;;;;4.55;1.80;;;0.90;99.90;;;;;;5056558;28;20243;-69
2023/03/06 04:06:00;;;;;;;3.78;2.00;;;0.90;99.90;;;;;;5070983;28;20033;-68
2023/03/06 04:08:26;;;;;;;5.22;1.80;;;0.90;99.90;;;;;;5068443;28;20064;-68
2023/03/06 04:10:53;;;;;;;5.80;2.22;;;0.90;99.90;;;;;;5069450;28;20040;-68
2023/03/06 04:13:20;;;;;;;9.00;2.47;;;0.90;99.90;;;;;;5070069;28;20443;-68
2023/03/06 04:15:50;;;;;;;4.13;1.88;;;0.90;99.90;;;;;;5069778;28;20039;-68
2023/03/06 04:18:16;;;;;;;5.30;2.00;;;0.80;99.90;;;;;;5070536;28;20090;-68
2023/03/06 04:20:43;;;;;;;6.63;2.20;;;0.80;99.90;;;;;;5071488;28;20048;-68
2023/03/06 04:23:09;;;;;;;7.15;2.28;;;0.80;99.90;;;;;;5070553;28;20044;-68
2023/03/06 04:25:35;;;;;;;5.15;2.25;;;0.80;99.90;;;;;;5066903;28;20070;-69
2023/03/06 04:28:00;;;;;;;4.95;1.70;;;0.80;99.90;;;;;;5069131;28;20128;-68
2023/03/06 04:30:26;;;;;;;5.75;2.03;;;0.80;99.90;;;;;;5062681;28;20049;-69
2023/03/06 04:32:52;;;;;;;7.47;2.45;;;0.80;99.90;;;;;;5070346;28;20476;-68
2023/03/06 04:35:17;;;;;;;4.30;2.00;;;0.80;99.90;;;;;;5067576;28;20044;-68
2023/03/06 04:37:43;;;;;;;5.72;2.38;;;0.80;99.90;;;;;;5069591;28;20040;-68
2023/03/06 04:40:21;;;;;;;4.13;1.80;;;0.90;99.90;;;;;;5068721;28;20032;-69
2023/03/06 04:42:47;;;;;;;6.03;1.95;;;0.90;99.90;;;;;;5068109;28;20063;-69
2023/03/06 04:45:14;;;;;;;3.33;2.05;;;0.90;99.90;;;;;;5064372;28;20107;-69
2023/03/06 04:47:40;;;;;;;5.88;2.10;;;0.90;99.90;;;;;;5051131;28;20044;-69
2023/03/06 04:50:06;;;;;;;4.28;2.28;;;0.90;99.90;;;;;;5069470;28;20382;-69
2023/03/06 04:52:32;;;;;;;5.53;2.30;;;0.90;99.90;;;;;;5069713;28;20505;-69
2023/03/06 04:54:58;;;;;;;4.88;2.50;;;1.00;99.90;;;;;;5064676;28;20085;-69
2023/03/06 04:57:23;;;;;;;5.60;2.20;;;1.00;99.90;;;;;;5070101;28;20043;-69
2023/03/06 04:59:50;;;;;;;4.35;1.95;;;1.00;99.90;;;;;;5067396;28;20080;-69
2023/03/06 05:02:16;;;;;;;3.45;1.80;;;1.00;99.90;;;;;;5069842;28;20041;-69
2023/03/06 05:04:42;;;;;;;4.85;1.80;;;1.00;99.90;;;;;;5064901;28;20404;-69
2023/03/06 05:07:08;;;;;;;5.57;1.92;;;1.00;99.90;;;;;;5073260;28;20138;-69
2023/03/06 05:09:34;;;;;;;7.50;2.10;;;1.10;99.90;;;;;;5064091;28;20475;-69
2023/03/06 05:12:01;;;;;;;4.57;2.17;;;1.10;99.90;;;;;;5058802;28;20036;-69
2023/03/06 05:14:30;;;;;;;7.03;2.55;;;1.10;99.90;;;;;;5069077;28;20033;-69
2023/03/06 05:16:56;;;;;;;4.70;2.30;;;1.10;99.90;;;;;;5067148;28;20560;-69
2023/03/06 05:19:22;;;;;;;5.82;2.13;;;1.10;99.90;;;;;;5070583;28;20036;-69
2023/03/06 05:21:47;;;;;;;7.68;2.25;;;1.00;99.90;;;;;;5069944;28;20040;-68
2023/03/06 05:24:13;;;;;;;7.10;2.58;;;1.00;99.90;;;;;;5063500;28;20041;-68
2023/03/06 05:26:39;;;;;;;6.93;2.40;;;1.00;99.90;;;;;;5066375;28;20131;-68
2023/03/06 05:29:04;;;;;;;4.80;2.20;;;1.00;99.90;;;;;;5062064;28;20048;-68
2023/03/06 05:31:30;;;;;;;6.07;2.00;;;1.00;99.90;;;;;;5070269;28;20076;-68
2023/03/06 05:33:59;;;;;;;6.07;2.10;;;1.00;99.90;;;;;;5064765;28;20091;-67
2023/03/06 05:36:25;;;;;;;5.78;2.28;;;1.00;99.90;;;;;;5066121;28;20355;-68
2023/03/06 05:38:50;;;;;;;6.03;2.53;;;1.00;99.90;;;;;;5066420;28;20051;-68
2023/03/06 05:41:16;;;;;;;8.38;2.25;;;1.00;99.90;;;;;;5067876;28;20409;-68
2023/03/06 05:43:42;;;;;;;4.07;2.10;;;1.00;99.90;;;;;;5067022;28;20083;-68
2023/03/06 05:46:09;;;;;;;8.75;3.08;;;1.00;99.90;;;;;;5064868;28;20052;-68
2023/03/06 05:48:36;;;;;;;6.63;3.13;;;1.10;99.90;;;;;;5062975;28;20083;-69
2023/03/06 05:51:03;;;;;;;7.97;3.63;;;1.10;99.90;;;;;;5063974;28;20056;-68
2023/03/06 05:53:29;;;;;;;10.25;3.53;;;1.10;99.90;;;;;;5064052;28;20422;-68
2023/03/06 05:56:01;;;;;;;6.80;3.10;;;1.10;99.90;;;;;;5070028;28;20371;-69
2023/03/06 05:58:28;;;;;;;6.10;3.25;;;1.10;99.90;;;;;;5061369;28;20036;-69
2023/03/06 06:00:54;;;;;;;7.03;3.20;;;1.10;99.90;;;;;;5063094;28;20047;-69
2023/03/06 06:03:20;;;;;;;6.78;3.35;;;1.00;99.90;;;;;;5069926;28;20123;-68
2023/03/06 06:05:46;;;;;;;7.80;2.75;;;1.00;99.90;;;;;;5060130;28;20469;-69
2023/03/06 06:08:12;;;;;;;5.93;2.95;;;1.00;99.90;;;;;;5066773;28;20075;-69
2023/03/06 06:10:38;;;;;;;6.53;3.60;;;1.10;99.90;;;;;;5070155;28;20390;-68
2023/03/06 06:13:04;;;;;;;10.85;3.97;;;0.90;99.90;;;;;;5073661;28;20044;-69
2023/03/06 06:15:30;;;;;;;7.15;3.75;;;0.80;99.90;;;;;;5066869;28;20469;-68
2023/03/06 06:17:56;;;;;;;8.70;4.28;;;0.80;99.90;;;;;;5069210;28;20048;-69
2023/03/06 06:20:22;;;;;;;8.45;4.18;;;0.70;99.90;;;;;;5068315;28;20055;-68
2023/03/06 06:22:48;;;;;;;8.43;4.55;;;0.70;99.90;;;;;;5069600;28;20123;-69
2023/03/06 06:25:14;;;;;;;6.53;4.43;;;0.70;99.90;;;;;;5070048;28;20172;-69
2023/03/06 06:27:40;;;;;;;12.80;4.90;;;0.70;99.90;;;;;;5069324;28;20079;-69
2023/03/06 06:30:07;;;;;;;7.68;3.88;;;0.60;99.90;;;;;;5073367;28;20485;-69
2023/03/06 06:32:34;;;;;;;8.63;3.97;;;0.60;99.90;;;;;;5065632;28;20041;-68
2023/03/06 06:35:00;;;;;;;7.95;4.20;;;0.80;99.90;;;;;;5072044;28;20037;-69
2023/03/06 06:37:26;;;;;;;10.05;3.78;;;0.70;99.90;;;;;;5078927;28;20035;-70
2023/03/06 06:39:52;;;;;;;7.72;4.40;;;0.70;99.90;;;;;;5060444;28;20052;-69
2023/03/06 06:42:18;;;;;;;10.10;5.28;;;0.70;99.90;;;;;;5054562;28;20699;-69
2023/03/06 06:44:43;;;;;;;10.50;5.72;;;0.70;99.90;;;;;;5078164;28;20060;-69
2023/03/06 06:47:09;;;;;;;11.68;5.72;;;0.70;99.90;;;;;;5069267;28;20473;-68
2023/03/06 06:49:35;;;;;;;11.25;5.45;;;0.70;99.90;;;;;;5072141;28;20056;-69
2023/03/06 06:52:01;;;;;;;7.95;4.85;;;0.70;99.90;;;;;;5077093;28;20052;-69
2023/03/06 06:54:26;;;;;;;10.13;4.65;;;0.60;99.90;;;;;;5078236;28;20048;-69
2023/03/06 06:56:52;;;;;;;15.88;4.90;;;0.60;99.90;;;;;;5073143;28;20036;-69
2023/03/06 06:59:18;;;;;;;8.48;4.05;;;0.60;99.90;;;;;;5074131;28;20032;-69
2023/03/06 07:01:44;;;;;;;8.70;4.57;;;0.70;99.90;;;;;;5075811;28;20055;-68
2023/03/06 07:04:13;;;;;;;7.65;3.35;;;0.70;99.90;;;;;;5074733;28;20040;-67
2023/03/06 07:06:39;;;;;;;9.20;3.78;;;0.70;99.90;;;;;;5071891;28;20044;-68
2023/03/06 07:09:05;;;;;;;7.18;3.30;;;0.70;99.90;;;;;;5067487;28;20052;-68
2023/03/06 07:11:30;;;;;;;14.25;3.28;;;0.90;99.90;;;;;;5068430;28;20036;-68
2023/03/06 07:13:56;;;;;;;6.70;3.05;;;0.80;99.90;;;;;;5068090;28;20033;-69
2023/03/06 07:16:22;;;;;;;7.05;3.38;;;0.80;99.90;;;;;;5070967;28;20041;-68
2023/03/06 07:18:48;;;;;;;10.07;3.85;;;0.90;99.90;;;;;;5069119;28;20128;-68
2023/03/06 07:21:14;;;;;;;9.30;4.30;;;1.00;99.90;;;;;;5070776;28;20048;-69
2023/03/06 07:23:39;;;;;;;9.95;5.05;;;1.00;99.90;;;;;;5061478;28;20041;-69
2023/03/06 07:26:05;;;;;;;9.18;4.85;;;1.10;99.90;;;;;;5071551;28;20094;-71
2023/03/06 07:28:32;;;;;;;10.80;5.43;;;1.20;99.90;;;;;;5066735;28;20374;-69
2023/03/06 07:30:57;;;;;;;11.18;5.55;;;1.20;99.90;;;;;;5070116;28;20044;-69
2023/03/06 07:33:23;;;;;;;13.60;5.45;;;1.30;99.90;;;;;;5069927;28;20543;-69
2023/03/06 07:35:49;;;;;;;9.10;4.78;;;1.40;99.90;;;;;;5068764;28;20036;-69
2023/03/06 07:38:14;;;;;;;8.07;5.00;;;1.40;99.90;;;;;;5069517;28;20067;-69
2023/03/06 07:40:41;;;;;;;9.48;5.07;;;1.50;99.90;;;;;;5073523;28;20044;-69
2023/03/06 07:43:06;;;;;;;12.27;5.40;;;1.50;99.90;;;;;;5069979;28;20171;-69
2023/03/06 07:45:32;;;;;;;9.93;4.70;;;1.60;99.90;;;;;;5060876;28;20495;-69
2023/03/06 07:47:58;;;;;;;8.85;4.05;;;1.70;99.90;;;;;;5069034;28;20544;-69
2023/03/06 07:50:24;;;;;;;7.32;4.70;;;1.80;99.90;;;;;;5071116;28;20094;-68
2023/03/06 07:52:51;;;;;;;9.18;4.43;;;2.00;99.90;;;;;;5066974;28;20071;-68
2023/03/06 07:55:17;;;;;;;6.25;3.80;;;2.20;99.90;;;;;;5070766;28;20433;-70
2023/03/06 07:57:42;;;;;;;6.43;3.72;;;2.30;99.90;;;;;;5069453;28;20051;-68
2023/03/06 08:00:12;;;;;;;7.13;3.50;;;2.40;99.90;;;;;;5070109;28;20044;-68
2023/03/06 08:02:38;;;;;;;8.35;3.30;;;2.40;99.90;;;;;;5062391;28;20070;-68
2023/03/06 08:05:05;;;;;;;6.65;3.50;;;2.50;99.90;;;;;;5073013;28;20082;-68
2023/03/06 08:07:31;;;;;;;4.63;3.47;;;2.60;99.90;;;;;;5039883;28;20045;-68
2023/03/06 08:09:57;;;;;;;8.75;3.38;;;2.80;99.90;;;;;;5062540;28;20116;-67
2023/03/06 08:12:22;;;;;;;9.02;3.63;;;2.90;99.90;;;;;;5072354;28;20033;-68
2023/03/06 08:14:48;;;;;;;6.10;4.03;;;3.20;99.90;;;;;;5060904;28;20167;-68
2023/03/06 08:17:14;;;;;;;7.35;3.28;;;3.40;99.90;;;;;;5061080;28;20565;-68
2023/03/06 08:19:39;;;;;;;3.97;2.83;;;3.60;99.90;;;;;;5063216;28;20102;-68
2023/03/06 08:22:05;;;;;;;4.05;2.75;;;3.70;99.90;;;;;;5062150;28;20033;-68
2023/03/06 08:24:32;;;;;;;7.72;3.20;;;3.90;99.90;;;;;;5067350;28;20036;-67
2023/03/06 08:26:57;;;;;;;4.45;3.05;;;3.90;99.90;;;;;;5067458;28;20083;-67
2023/03/06 08:29:23;;;;;;;6.13;2.78;;;3.90;99.90;;;;;;5061323;28;20045;-67
2023/03/06 08:31:49;;;;;;;4.82;2.67;;;3.90;99.90;;;;;;5055769;28;20048;-67
2023/03/06 08:34:20;;;;;;;8.00;3.40;;;3.70;99.90;;;;;;5055530;28;20063;-67
2023/03/06 08:36:46;;;;;;;4.82;2.55;;;3.70;99.90;;;;;;5055010;28;20039;-68
2023/03/06 08:39:12;;;;;;;6.55;2.60;;;3.50;99.90;;;;;;5060729;28;20132;-68
2023/03/06 08:41:39;;;;;;;8.93;2.30;;;3.30;99.90;;;;;;5060757;28;20048;-67
2023/03/06 08:47:46;;;;;;;6.32;2.17;;;3.30;99.90;;;;;;5059817;28;20051;-69
2023/03/06 08:50:12;;;;;;;5.82;2.40;;;3.40;99.90;;;;;;5059224;28;20040;-68
2023/03/06 08:52:39;;;;;;;5.03;2.60;;;3.60;99.90;;;;;;5057450;28;20105;-68
2023/03/06 08:55:05;;;;;;;6.35;3.17;;;3.70;99.90;;;;;;5062268;28;20044;-68
2023/03/06 08:57:31;;;;;;;7.72;2.55;;;3.80;99.90;;;;;;5065403;28;20051;-69
2023/03/06 08:59:56;;;;;;;6.38;2.25;;;3.90;99.90;;;;;;5057508;28;20040;-68
2023/03/06 09:02:22;;;;;;;5.63;2.35;;;4.10;99.90;;;;;;5057884;28;20379;-69
2023/03/06 09:04:48;;;;;;;4.60;1.85;;;4.10;99.90;;;;;;5064237;28;20087;-71
2023/03/06 09:07:13;;;;;;;5.03;2.15;;;4.20;99.90;;;;;;5061662;28;20086;-68
2023/03/06 09:09:39;;;;;;;7.03;2.50;;;4.10;99.90;;;;;;5065873;28;20501;-68
2023/03/06 09:12:05;;;;;;;3.58;2.33;;;4.30;99.90;;;;;;5066744;28;20071;-68
2023/03/06 09:14:31;;;;;;;4.07;2.30;;;4.50;99.90;;;;;;5066128;28;20459;-67
2023/03/06 09:16:56;;;;;;;4.68;2.00;;;4.70;99.90;;;;;;5069168;28;20428;-67
2023/03/06 09:19:22;;;;;;;5.13;1.60;;;4.90;99.90;;;;;;5062758;28;20037;-67
2023/03/06 09:21:48;;;;;;;7.07;1.73;;;5.10;99.90;;;;;;5066584;28;20512;-67
2023/03/06 09:24:13;;;;;;;4.03;1.73;;;5.20;99.90;;;;;;5067840;28;20036;-68
2023/03/06 09:26:39;;;;;;;4.75;1.83;;;5.20;99.90;;;;;;5068970;28;20037;-67
2023/03/06 09:29:06;;;;;;;10.50;2.42;;;5.30;99.90;;;;;;5069418;28;20446;-67
2023/03/06 09:31:31;;;;;;;12.48;2.00;;;5.30;99.90;;;;;;5069886;28;20083;-69
2023/03/06 09:33:57;;;;;;;3.38;1.33;;;5.40;99.90;;;;;;5067865;28;20127;-71
2023/03/06 09:36:23;;;;;;;7.90;2.08;;;5.50;99.90;;;;;;5069580;28;20082;-71
2023/03/06 09:38:49;;;;;;;4.55;1.73;;;5.50;99.90;;;;;;5069731;28;20454;-72
2023/03/06 09:41:31;;;;;;;3.08;1.40;;;5.60;99.90;;;;;;5071143;28;20398;-71
2023/03/06 09:44:04;;;;;;;4.90;1.35;;;5.60;99.90;;;;;;5073821;28;20047;-73
2023/03/06 09:46:48;;;;;;;6.53;1.40;;;5.70;99.90;;;;;;5069304;28;20119;-71
2023/03/06 09:49:33;;;;;;;6.55;1.70;;;5.70;99.90;;;;;;5070544;28;20066;-74
2023/03/06 09:52:19;;;;;;;6.78;1.70;;;5.80;99.90;;;;;;5057887;28;20048;-74
2023/03/06 09:54:51;;;;;;;5.00;2.13;;;5.80;99.90;;;;;;5073248;28;20040;-71
2023/03/06 09:57:40;;;;;;;4.70;1.60;;;5.90;99.90;;;;;;5061216;28;20044;-71
2023/03/06 10:00:13;;;;;;;8.90;1.58;;;6.20;99.90;;;;;;5062112;28;20103;-71
2023/03/06 10:03:11;;;;;;;7.10;1.80;;;6.20;99.90;;;;;;5070533;28;20512;-71
2023/03/06 10:06:01;;;;;;;4.72;1.40;;;6.40;99.90;;;;;;5053885;28;20045;-72
2023/03/06 10:08:44;;;;;;;7.40;2.30;;;6.60;99.90;;;;;;5065675;28;20049;-72
2023/03/06 10:11:13;;;;;;;3.40;1.30;;;6.80;99.90;;;;;;5073657;28;20409;-74
2023/03/06 10:13:52;;;;;;;5.57;1.83;;;6.90;99.90;;;;;;5071194;28;20064;-73
2023/03/06 10:16:32;;;;;;;4.45;1.50;;;7.00;99.90;;;;;;5062421;28;20040;-73
2023/03/06 10:19:03;;;;;;;5.05;1.50;;;7.20;99.90;;;;;;5062813;28;20056;-74
2023/03/06 10:21:36;;;;;;;3.40;1.20;;;7.40;99.90;;;;;;5071695;28;20044;-74
2023/03/06 10:24:29;;;;;;;2.30;1.00;;;7.60;99.90;;;;;;5069083;28;20041;-74
2023/03/06 10:27:20;;;;;;;3.65;1.20;;;7.90;99.90;;;;;;5071581;28;20041;-74
2023/03/06 10:30:12;;;;;;;4.65;1.20;;;8.30;99.90;;;;;;5073036;28;20048;-73
2023/03/06 10:32:57;;;;;;;6.55;0.90;;;8.60;99.90;;;;;;5064246;28;20055;-73
2023/03/06 10:35:31;;;;;;;3.10;0.85;;;8.80;99.90;;;;;;5073029;28;20032;-73
2023/03/06 10:38:37;;;;;;;3.63;1.13;;;9.10;99.90;;;;;;5069863;28;20123;-73
2023/03/06 10:41:11;;;;;;;7.80;1.17;;;9.10;99.90;;;;;;5066596;28;20045;-73
2023/03/06 10:43:40;;;;;;;2.65;0.90;;;9.00;99.90;;;;;;5072419;28;20084;-73
2023/03/06 10:46:08;;;;;;;5.30;1.20;;;8.90;99.90;;;;;;5069151;28;20044;-71
2023/03/06 10:48:35;;;;;;;6.72;1.10;;;8.90;99.90;;;;;;5067463;28;20052;-71
2023/03/06 10:51:18;;;;;;;4.63;1.20;;;9.00;99.90;;;;;;5066935;28;20033;-69
2023/03/06 10:53:48;;;;;;;5.88;1.00;;;9.20;99.90;;;;;;5071880;28;20460;-72
2023/03/06 10:56:32;;;;;;;2.67;1.00;;;9.30;99.90;;;;;;5071888;28;20079;-72
2023/03/06 10:59:11;;;;;;;3.42;0.90;;;9.20;99.90;;;;;;5059679;28;20478;-72
2023/03/06 11:01:39;;;;;;;4.65;0.93;;;9.40;99.90;;;;;;5060692;28;20059;-72
2023/03/06 11:04:20;;;;;;;2.70;0.82;;;9.30;99.90;;;;;;5063384;28;20129;-72
2023/03/06 11:06:45;;;;;;;5.88;1.13;;;8.90;99.90;;;;;;5062768;28;20045;-70
2023/03/06 11:09:19;;;;;;;3.63;1.00;;;8.50;99.90;;;;;;5073940;28;20543;-72
2023/03/06 11:11:45;;;;;;;4.07;0.80;;;8.50;99.90;;;;;;5071420;28;20041;-72
2023/03/06 11:14:21;;;;;;;2.58;0.85;;;8.80;99.90;;;;;;5069632;28;20397;-71
2023/03/06 11:16:52;;;;;;;3.30;0.95;;;9.10;99.90;;;;;;5066597;28;20041;-72
2023/03/06 11:19:28;;;;;;;3.55;0.95;;;9.40;99.90;;;;;;5056039;28;20474;-72
2023/03/06 11:22:17;;;;;;;5.80;0.93;;;10.10;99.90;;;;;;5073679;28;20564;-72
2023/03/06 11:24:45;;;;;;;;;;;11.00;99.90;;;;;;5066903;28;20040;-72
2023/03/06 11:27:33;;;;;;;4.00;1.60;;;11.60;99.90;;;;;;5070954;28;20288;-72
2023/03/06 11:30:05;;;;;;;3.75;1.00;;;11.60;99.90;;;;;;5072042;28;20037;-71
2023/03/06 11:32:54;;;;;;;3.60;1.10;;;11.40;99.90;;;;;;5077399;28;20060;-71
2023/03/06 11:35:34;;;;;;;2.53;0.90;;;11.50;99.90;;;;;;5079623;28;20092;-72
2023/03/06 11:38:15;;;;;;;2.25;0.93;;;11.80;99.90;;;;;;5063035;28;20041;-72
2023/03/06 11:40:44;;;;;;;4.93;1.23;;;12.30;99.90;;;;;;5067184;28;20094;-71
2023/03/06 11:43:30;;;;;;;2.70;1.00;;;12.60;99.90;;;;;;5071895;28;20146;-72
2023/03/06 11:46:10;;;;;;;4.05;1.02;;;13.10;98.20;;;;;;5074036;28;20037;-72
2023/03/06 11:48:42;;;;;;;9.80;1.17;;;13.40;98.30;;;;;;5068450;28;20048;-72
2023/03/06 11:51:17;;;;;;;5.38;1.00;;;13.70;99.70;;;;;;5069073;28;20434;-72
2023/03/06 11:53:42;;;;;;;3.60;1.17;;;13.70;98.20;;;;;;5067211;28;20083;-71
2023/03/06 11:56:23;;;;;;;4.55;1.38;;;13.80;96.70;;;;;;5068033;28;20064;-72
2023/03/06 11:59:06;;;;;;;29.85;1.88;;;14.20;96.10;;;;;;5055412;28;20077;-71
2023/03/06 12:02:01;;;;;;;4.05;1.23;;;14.30;93.10;;;;;;5067599;28;20096;-72
2023/03/06 12:04:42;;;;;;;1.85;0.80;;;14.50;92.80;;;;;;5067920;28;20556;-72
2023/03/06 12:07:33;;;;;;;2.88;0.93;;;14.60;90.10;;;;;;5055063;28;20048;-72
2023/03/06 12:10:23;;;;;;;2.85;1.10;;;14.60;84.90;;;;;;5071636;28;20036;-72
2023/03/06 12:12:51;;;;;;;3.80;0.98;;;13.30;83.20;;;;;;5065669;28;20041;-72
2023/03/06 12:15:32;;;;;;;2.65;1.30;;;12.70;91.90;;;;;;5058826;28;20101;-72
2023/03/06 12:18:25;;;;;;;5.72;1.00;;;12.70;90.30;;;;;;5071413;28;20055;-72
2023/03/06 12:21:06;;;;;;;2.20;0.90;;;13.10;89.40;;;;;;5063422;28;20457;-72
2023/03/06 12:23:56;;;;;;;5.50;1.25;;;13.20;89.50;;;;;;5065075;28;20067;-72
2023/03/06 12:26:49;;;;;;;4.70;1.10;;;13.30;93.10;;;;;;5066960;28;20052;-71
2023/03/06 12:29:27;;;;;;;3.10;1.23;;;13.10;90.80;;;;;;5065982;28;20036;-71
2023/03/06 12:31:59;;;;;;;5.10;1.30;;;13.00;91.30;;;;;;5079625;28;20115;-71
2023/03/06 12:34:45;;;;;;;5.03;1.52;;;12.40;91.10;;;;;;5066842;28;20047;-71
2023/03/06 12:37:13;;;;;;;1.90;1.05;;;12.20;93.80;;;;;;5070972;28;20048;-72
2023/03/06 12:40:08;;;;;;;4.43;1.58;;;11.90;92.90;;;;;;5055272;28;20435;-70
2023/03/06 12:43:04;;;;;;;3.72;1.05;;;11.50;94.10;;;;;;5057248;28;20072;-71
2023/03/06 12:45:35;;;;;;;9.02;1.33;;;10.90;92.50;;;;;;5066826;28;20040;-71
2023/03/06 12:48:03;;;;;;;6.18;1.30;;;10.50;95.80;;;;;;5061729;28;20115;-71
2023/03/06 12:50:37;;;;;;;4.90;1.15;;;10.00;95.00;;;;;;5052146;28;20061;-71
2023/03/06 12:53:06;;;;;;;3.13;1.13;;;9.60;94.10;;;;;;5067608;28;20036;-71
2023/03/06 12:55:41;;;;;;;3.67;1.05;;;9.30;96.70;;;;;;5071458;28;20054;-71
2023/03/06 12:58:28;;;;;;;4.05;1.02;;;9.00;96.90;;;;;;5064073;28;20386;-71
2023/03/06 13:01:39;;;;;;;4.20;1.50;;;8.70;98.60;;;;;;5071094;28;20045;-72
2023/03/06 13:04:26;;;;;;;7.35;1.38;;;8.30;96.90;;;;;;5059524;28;20068;-70
2023/03/06 13:07:46;;;;;;;2.38;0.77;;;8.20;98.10;;;;;;5062515;28;20045;-72
2023/03/06 13:10:33;;;;;;;4.40;1.00;;;8.10;99.00;;;;;;5046760;28;20406;-70
2023/03/06 13:13:23;;;;;;;5.75;1.30;;;8.00;99.20;;;;;;5058659;28;20048;-70